Alba, Michigan
Current Conditions -  °F | °C
As of 8:57 PM on Monday 24 Nov 2014 (Local Time) from KACB Reporting Station
Light Snow Light Snow  
Wind Chill: 28°   Ceiling: 800
Heat Index: 33°   Visibility: 2mi
Dew Point: 32°   Wind: 6mph
Humidity: 96%   Direction: 270°W
Pressure: 29.36"   Gusts: 21mph
Location:  44.97°N, 84.97°W
Report Text: KACB 250157Z AUTO 27005G18KT 2SM -SN OVC008 01/00 A2936 RMK AO2 T00060000
Loading
Personal Weather Stations






























Interactive Weather Map New forecast layout! Learn more

10-Day Weather Forecast

Advertisements
Track Severe Weather on mobile